createdAt,value
2023-05-20T00:01:57.657Z,41.17
2023-05-20T00:03:59.498Z,41.32
2023-05-20T00:06:01.579Z,41.26
2023-05-20T00:08:05.296Z,41.40
2023-05-20T00:10:08.192Z,41.51
2023-05-20T00:12:09.805Z,41.73
2023-05-20T00:14:11.547Z,41.27
2023-05-20T00:16:13.300Z,41.71
2023-05-20T00:18:14.973Z,41.65
2023-05-20T00:20:18.285Z,41.39
2023-05-20T00:22:20.021Z,41.99
2023-05-20T00:24:23.088Z,41.99
2023-05-20T00:26:24.877Z,41.90
2023-05-20T00:28:26.535Z,41.88
2023-05-20T00:30:28.761Z,42.34
2023-05-20T00:32:30.556Z,42.37
2023-05-20T00:34:32.346Z,42.48
2023-05-20T00:36:34.970Z,42.77
2023-05-20T00:38:36.832Z,43.57
2023-05-20T00:40:39.953Z,43.53
2023-05-20T00:42:41.602Z,43.95
2023-05-20T00:44:43.385Z,44.24
2023-05-20T00:46:45.055Z,44.53
2023-05-20T00:48:46.704Z,44.55
2023-05-20T00:50:49.908Z,44.79
2023-05-20T00:52:51.597Z,44.66
2023-05-20T00:54:53.408Z,44.16
2023-05-20T00:56:56.920Z,44.10
2023-05-20T00:58:58.724Z,43.71
2023-05-20T01:01:00.398Z,43.81
2023-05-20T01:03:02.221Z,43.64
2023-05-20T01:05:04.297Z,43.79
2023-05-20T01:07:07.000Z,44.18
2023-05-20T01:09:08.932Z,44.22
2023-05-20T01:11:16.345Z,43.80
2023-05-20T01:13:22.849Z,43.53
2023-05-20T01:15:27.176Z,44.08
2023-05-20T01:17:33.390Z,44.06
2023-05-20T01:19:38.835Z,44.01
2023-05-20T01:21:43.448Z,44.32
2023-05-20T01:23:46.454Z,44.25
2023-05-20T01:25:48.419Z,44.37
2023-05-20T01:27:51.805Z,43.84
2023-05-20T01:29:53.633Z,43.93
2023-05-20T01:31:58.016Z,43.77
2023-05-20T01:34:00.688Z,43.75
2023-05-20T01:36:02.849Z,43.92
2023-05-20T01:38:05.988Z,43.73
2023-05-20T01:40:12.008Z,43.84
2023-05-20T01:42:15.352Z,43.92
2023-05-20T01:44:17.187Z,43.33
2023-05-20T01:46:19.125Z,43.71
2023-05-20T01:48:20.906Z,43.52
2023-05-20T01:50:22.734Z,44.05
2023-05-20T01:52:24.530Z,44.03
2023-05-20T01:54:26.556Z,43.88
2023-05-20T01:56:29.716Z,44.09
2023-05-20T01:58:31.382Z,44.23
2023-05-20T02:00:33.592Z,44.34
2023-05-20T02:02:35.474Z,44.64
2023-05-20T02:04:37.220Z,44.62
2023-05-20T02:06:38.995Z,45.19
2023-05-20T02:08:40.695Z,45.11
2023-05-20T02:10:42.423Z,45.01
2023-05-20T02:12:45.483Z,45.27
2023-05-20T02:14:48.200Z,45.48
2023-05-20T02:16:49.993Z,45.81
2023-05-20T02:18:51.874Z,45.70
2023-05-20T02:20:53.511Z,45.97
2023-05-20T02:22:55.538Z,45.62
2023-05-20T02:24:57.633Z,45.76
2023-05-20T02:27:02.502Z,45.86
2023-05-20T02:29:05.631Z,46.04
2023-05-20T02:31:07.382Z,46.01
2023-05-20T02:33:09.271Z,46.13
2023-05-20T02:35:10.972Z,46.22
2023-05-20T02:37:12.870Z,46.41
2023-05-20T02:39:14.579Z,46.63
2023-05-20T02:41:16.690Z,46.90
2023-05-20T02:43:19.451Z,46.67
2023-05-20T02:45:22.602Z,46.33
2023-05-20T02:47:24.988Z,46.49
2023-05-20T02:49:26.979Z,46.43
2023-05-20T02:51:28.633Z,46.66
2023-05-20T02:53:31.652Z,46.32
2023-05-20T02:55:34.921Z,46.47
2023-05-20T02:57:37.353Z,46.59
2023-05-20T02:59:39.554Z,46.34
2023-05-20T03:01:44.208Z,46.60
2023-05-20T03:03:48.589Z,46.51
2023-05-20T03:05:50.292Z,46.06
2023-05-20T03:07:51.987Z,46.70
2023-05-20T03:09:55.016Z,46.82
2023-05-20T03:11:56.859Z,46.34
2023-05-20T03:14:01.320Z,46.54
2023-05-20T03:16:03.371Z,46.54
2023-05-20T03:18:08.162Z,46.44
2023-05-20T03:20:10.682Z,46.63
2023-05-20T03:22:15.065Z,46.97
2023-05-20T03:24:16.857Z,46.82
2023-05-20T03:26:18.619Z,46.70
2023-05-20T03:28:20.287Z,46.51
2023-05-20T03:30:21.913Z,46.69
2023-05-20T03:32:23.560Z,46.70
2023-05-20T03:34:26.847Z,46.84
2023-05-20T03:36:28.502Z,46.53
2023-05-20T03:38:35.924Z,46.68
2023-05-20T03:40:37.567Z,47.37
2023-05-20T03:42:39.718Z,47.17
2023-05-20T03:44:42.619Z,47.41
2023-05-20T03:46:44.383Z,47.18
2023-05-20T03:48:46.253Z,47.17
2023-05-20T03:50:49.570Z,46.99
2023-05-20T03:52:51.443Z,47.14
2023-05-20T03:54:53.604Z,47.49
2023-05-20T03:56:55.297Z,47.21
2023-05-20T03:58:57.074Z,47.19
2023-05-20T04:00:58.754Z,47.28
2023-05-20T04:03:00.826Z,47.03
2023-05-20T04:05:02.906Z,47.37
2023-05-20T04:07:06.104Z,47.26
2023-05-20T04:09:07.921Z,47.28
2023-05-20T04:11:10.083Z,47.27
2023-05-20T04:13:14.307Z,47.17
2023-05-20T04:15:16.282Z,47.63
2023-05-20T04:17:19.520Z,47.33
2023-05-20T04:19:21.353Z,47.68
2023-05-20T04:21:23.320Z,47.51
2023-05-20T04:23:26.470Z,47.92
2023-05-20T04:25:28.370Z,48.42
2023-05-20T04:27:30.395Z,48.17
2023-05-20T04:29:32.098Z,48.29
2023-05-20T04:31:34.295Z,48.34
2023-05-20T04:33:36.778Z,48.56
2023-05-20T04:35:38.664Z,48.57
2023-05-20T04:37:40.523Z,48.99
2023-05-20T04:39:43.682Z,49.08
2023-05-20T04:41:45.491Z,49.07
2023-05-20T04:43:47.074Z,48.74
2023-05-20T04:45:48.805Z,48.92
2023-05-20T04:47:50.494Z,49.21
2023-05-20T04:49:53.974Z,48.57
2023-05-20T04:51:55.697Z,48.71
2023-05-20T04:53:57.325Z,48.59
2023-05-20T04:56:00.328Z,48.48
2023-05-20T04:58:02.029Z,48.79
2023-05-20T05:00:04.527Z,48.69
2023-05-20T05:02:06.210Z,48.72
2023-05-20T05:04:07.898Z,48.79
2023-05-20T05:06:09.522Z,48.88
2023-05-20T05:08:11.498Z,48.83
2023-05-20T05:10:13.366Z,48.90
2023-05-20T05:12:16.455Z,48.96
2023-05-20T05:14:18.097Z,49.16
2023-05-20T05:16:19.842Z,49.22
2023-05-20T05:18:21.507Z,49.28
2023-05-20T05:20:23.203Z,49.59
2023-05-20T05:22:24.866Z,49.54
2023-05-20T05:24:26.595Z,49.63
2023-05-20T05:26:28.457Z,49.71
2023-05-20T05:28:31.606Z,50.04
2023-05-20T05:30:33.357Z,50.20
2023-05-20T05:32:36.782Z,50.17
2023-05-20T05:34:38.608Z,49.71
2023-05-20T05:36:40.985Z,50.01
2023-05-20T05:38:42.841Z,49.66
2023-05-20T05:40:44.549Z,50.13
2023-05-20T05:42:46.311Z,50.02
2023-05-20T05:44:49.593Z,50.14
2023-05-20T05:46:51.372Z,49.91
2023-05-20T05:48:52.978Z,50.13
2023-05-20T05:50:54.691Z,50.26
2023-05-20T05:52:56.334Z,50.53
2023-05-20T05:54:58.004Z,50.77
2023-05-20T05:56:59.721Z,51.43
2023-05-20T05:59:01.462Z,51.62
2023-05-20T06:01:04.675Z,52.15
2023-05-20T06:03:06.439Z,51.15
2023-05-20T06:05:09.365Z,50.92
2023-05-20T06:07:11.053Z,50.77
2023-05-20T06:09:12.737Z,51.13
2023-05-20T06:11:14.493Z,51.24
2023-05-20T06:13:16.156Z,51.27
2023-05-20T06:15:18.020Z,50.39
2023-05-20T06:17:21.118Z,51.28
2023-05-20T06:19:23.040Z,50.85
2023-05-20T06:21:25.109Z,50.94
2023-05-20T06:23:27.092Z,50.61
2023-05-20T06:25:28.764Z,50.84
2023-05-20T06:27:30.479Z,50.58
2023-05-20T06:29:32.148Z,51.45
2023-05-20T06:31:33.832Z,51.40
2023-05-20T06:33:36.908Z,51.14
2023-05-20T06:35:38.603Z,51.31
2023-05-20T06:37:40.446Z,50.65
2023-05-20T06:39:42.139Z,51.55
2023-05-20T06:41:43.896Z,51.11
2023-05-20T06:43:46.598Z,50.54
2023-05-20T06:45:48.513Z,51.02
2023-05-20T06:47:50.251Z,51.30
2023-05-20T06:49:53.284Z,51.12
2023-05-20T06:51:54.933Z,51.23
2023-05-20T06:53:56.643Z,50.60
2023-05-20T06:55:58.285Z,50.87
2023-05-20T06:58:00.157Z,50.30
2023-05-20T07:00:02.166Z,50.48
2023-05-20T07:02:04.264Z,50.84
2023-05-20T07:04:06.025Z,50.60
2023-05-20T07:06:09.019Z,50.57
2023-05-20T07:08:10.600Z,50.26
2023-05-20T07:10:12.378Z,50.28
2023-05-20T07:12:14.225Z,49.86
2023-05-20T07:14:15.908Z,50.03
2023-05-20T07:16:17.827Z,50.62
2023-05-20T07:18:19.596Z,50.48
2023-05-20T07:20:21.392Z,50.38
2023-05-20T07:22:24.473Z,50.71
2023-05-20T07:24:26.198Z,50.33
2023-05-20T07:26:27.904Z,50.06
2023-05-20T07:28:29.556Z,49.71
2023-05-20T07:30:31.196Z,49.56
2023-05-20T07:32:33.061Z,49.26
2023-05-20T07:34:34.705Z,49.24
2023-05-20T07:36:36.382Z,49.33
2023-05-20T07:38:40.978Z,48.58
2023-05-20T07:40:42.833Z,48.24
2023-05-20T07:42:44.454Z,48.11
2023-05-20T07:44:46.063Z,46.94
2023-05-20T07:46:48.765Z,46.74
2023-05-20T07:48:50.426Z,46.62
2023-05-20T07:50:52.039Z,46.52
2023-05-20T07:52:56.840Z,46.26
2023-05-20T07:54:59.978Z,46.43
2023-05-20T07:57:01.839Z,45.95
2023-05-20T07:59:03.557Z,45.98
2023-05-20T08:01:05.543Z,45.04
2023-05-20T08:03:07.305Z,44.47
2023-05-20T08:05:09.549Z,45.82
2023-05-20T08:07:11.257Z,45.11
2023-05-20T08:09:12.912Z,45.34
2023-05-20T08:11:16.028Z,44.88
2023-05-20T08:13:17.949Z,44.60
2023-05-20T08:15:19.808Z,44.02
2023-05-20T08:17:21.632Z,44.37
2023-05-20T08:19:23.391Z,44.88
2023-05-20T08:21:25.054Z,43.88
2023-05-20T08:23:26.692Z,43.51
2023-05-20T08:25:28.550Z,43.54
2023-05-20T08:27:31.744Z,43.27
2023-05-20T08:29:33.423Z,43.12
2023-05-20T08:31:35.272Z,43.17
2023-05-20T08:33:36.993Z,43.34
2023-05-20T08:35:38.617Z,43.34
2023-05-20T08:37:43.368Z,43.04
2023-05-20T08:39:44.962Z,43.00
2023-05-20T08:41:47.359Z,43.36
2023-05-20T08:43:51.730Z,42.84
2023-05-20T08:45:53.977Z,42.70
2023-05-20T08:47:55.975Z,42.53
2023-05-20T08:49:57.894Z,42.31
2023-05-20T08:52:00.489Z,42.40
2023-05-20T08:54:02.735Z,42.78
2023-05-20T08:56:04.687Z,42.61
2023-05-20T08:58:07.476Z,42.30
2023-05-20T09:00:12.676Z,42.51
2023-05-20T09:02:14.916Z,42.26
2023-05-20T09:04:16.783Z,42.36
2023-05-20T09:06:18.643Z,42.06
2023-05-20T09:08:25.266Z,41.86
2023-05-20T09:10:26.914Z,41.82
2023-05-20T09:12:28.667Z,41.71
2023-05-20T09:14:30.623Z,41.81
2023-05-20T09:16:33.820Z,41.76
2023-05-20T09:18:38.791Z,41.65
2023-05-20T09:20:40.653Z,41.40
2023-05-20T09:22:42.343Z,41.54
2023-05-20T09:24:44.126Z,41.56
2023-05-20T09:26:45.932Z,41.44
2023-05-20T09:28:47.613Z,41.48
2023-05-20T09:30:49.663Z,41.43
2023-05-20T09:32:59.922Z,41.79
2023-05-20T09:35:01.880Z,41.32
2023-05-20T09:37:06.950Z,41.68
2023-05-20T09:39:12.512Z,41.21
2023-05-20T09:41:14.864Z,41.32
2023-05-20T09:43:17.324Z,41.00
2023-05-20T09:45:18.967Z,41.18
2023-05-20T09:47:20.909Z,40.48
2023-05-20T09:49:25.087Z,40.96
2023-05-20T09:51:29.034Z,40.85
2023-05-20T09:53:30.990Z,40.22
2023-05-20T09:55:33.532Z,43.16
2023-05-20T09:57:36.205Z,42.84
2023-05-20T09:59:38.321Z,41.71
2023-05-20T10:01:39.976Z,41.15
2023-05-20T10:03:44.173Z,43.37
2023-05-20T10:05:55.566Z,42.90
2023-05-20T10:08:25.501Z,44.07
2023-05-20T10:10:37.293Z,41.28
2023-05-20T10:12:46.995Z,42.58
2023-05-20T10:15:01.282Z,43.39
2023-05-20T10:17:10.367Z,43.02
2023-05-20T10:19:24.864Z,42.89
2023-05-20T10:21:28.267Z,41.18
2023-05-20T10:23:31.263Z,42.34
2023-05-20T10:25:32.933Z,42.39
2023-05-20T10:27:44.948Z,42.04
2023-05-20T10:29:51.162Z,41.94
2023-05-20T10:31:53.374Z,41.24
2023-05-20T10:33:55.078Z,41.50
2023-05-20T10:35:59.921Z,41.89
2023-05-20T10:38:11.095Z,41.79
2023-05-20T10:40:14.738Z,41.78
2023-05-20T10:42:16.446Z,41.65
2023-05-20T10:44:18.109Z,42.13
2023-05-20T10:46:31.249Z,41.17
2023-05-20T10:48:42.393Z,41.37
2023-05-20T10:50:45.322Z,41.23
2023-05-20T10:52:47.474Z,41.34
2023-05-20T10:54:55.987Z,41.20
2023-05-20T10:56:57.749Z,41.40
2023-05-20T10:59:02.241Z,41.28
2023-05-20T11:01:03.998Z,41.15
2023-05-20T11:03:07.838Z,40.91
2023-05-20T11:05:11.562Z,41.21
2023-05-20T11:07:13.436Z,41.63
2023-05-20T11:09:16.513Z,41.56
2023-05-20T11:11:19.573Z,40.72
2023-05-20T11:13:21.350Z,40.50
2023-05-20T11:15:23.359Z,40.56
2023-05-20T11:17:25.129Z,40.65
2023-05-20T11:19:27.367Z,40.36
2023-05-20T11:21:29.369Z,40.88
2023-05-20T11:23:31.060Z,40.46
2023-05-20T11:25:33.338Z,39.99
2023-05-20T11:27:39.301Z,39.97
2023-05-20T11:29:41.039Z,39.97
2023-05-20T11:31:43.244Z,40.07
2023-05-20T11:33:44.941Z,40.25
2023-05-20T11:35:47.803Z,40.40
2023-05-20T11:37:54.862Z,40.45
2023-05-20T11:40:06.828Z,40.45
2023-05-20T11:42:08.470Z,40.88
2023-05-20T11:44:12.563Z,40.93
2023-05-20T11:46:14.261Z,40.71
2023-05-20T11:48:16.225Z,41.43
2023-05-20T11:50:18.093Z,41.23
2023-05-20T11:52:19.792Z,41.25
2023-05-20T11:54:23.069Z,40.92
2023-05-20T11:56:24.811Z,41.35
2023-05-20T11:58:27.880Z,41.11
2023-05-20T12:00:33.672Z,41.20
2023-05-20T12:02:45.412Z,41.25
2023-05-20T12:04:47.164Z,41.56
2023-05-20T12:06:48.930Z,41.33
2023-05-20T12:08:50.704Z,41.24
2023-05-20T12:10:52.372Z,41.15
2023-05-20T12:12:54.003Z,40.92
2023-05-20T12:14:55.705Z,40.96
2023-05-20T12:16:59.090Z,40.78
2023-05-20T12:19:01.164Z,40.47
2023-05-20T12:21:03.031Z,40.83
2023-05-20T12:23:05.009Z,40.38
2023-05-20T12:25:07.261Z,40.06
2023-05-20T12:27:08.913Z,40.24
2023-05-20T12:29:10.627Z,40.29
2023-05-20T12:31:12.394Z,39.97
2023-05-20T12:33:15.436Z,40.12
2023-05-20T12:35:17.920Z,40.24
2023-05-20T12:37:19.656Z,40.34
2023-05-20T12:39:21.382Z,39.44
2023-05-20T12:41:23.086Z,40.38
2023-05-20T12:43:24.652Z,40.20
2023-05-20T12:45:26.457Z,39.85
2023-05-20T12:47:28.268Z,39.75
2023-05-20T12:49:31.357Z,40.18
2023-05-20T12:51:33.121Z,39.20
2023-05-20T12:53:34.781Z,38.27
2023-05-20T12:55:36.416Z,37.59
2023-05-20T12:57:38.108Z,37.62
2023-05-20T12:59:39.721Z,37.60
2023-05-20T13:01:41.405Z,38.18
2023-05-20T13:03:43.407Z,37.74
2023-05-20T13:05:46.528Z,37.92
2023-05-20T13:07:48.260Z,36.94
2023-05-20T13:09:49.943Z,36.64
2023-05-20T13:11:51.618Z,38.17
2023-05-20T13:13:54.987Z,38.14
2023-05-20T13:15:56.670Z,39.30
2023-05-20T13:17:58.314Z,38.37
2023-05-20T13:19:59.957Z,38.25
2023-05-20T13:22:03.060Z,37.97
2023-05-20T13:24:05.244Z,38.31
2023-05-20T13:26:06.978Z,38.07
2023-05-20T13:28:08.600Z,38.16
2023-05-20T13:30:11.064Z,37.92
2023-05-20T13:32:12.723Z,38.57
2023-05-20T13:34:14.834Z,38.82
2023-05-20T13:36:16.625Z,38.62
2023-05-20T13:38:19.582Z,38.34
2023-05-20T13:40:21.639Z,38.07
2023-05-20T13:42:23.342Z,38.29
2023-05-20T13:44:24.967Z,36.90
2023-05-20T13:46:26.735Z,37.40
2023-05-20T13:48:28.346Z,37.87
2023-05-20T13:50:29.959Z,38.40
2023-05-20T13:52:31.690Z,38.37
2023-05-20T13:54:34.683Z,37.83
2023-05-20T13:56:36.401Z,37.25
2023-05-20T13:58:38.381Z,38.44
2023-05-20T14:00:40.069Z,39.02
2023-05-20T14:02:41.881Z,39.21
2023-05-20T14:04:43.786Z,39.64
2023-05-20T14:06:46.182Z,39.51
2023-05-20T14:08:47.807Z,39.32
2023-05-20T14:10:51.040Z,38.94
2023-05-20T14:12:53.209Z,39.54
2023-05-20T14:14:54.859Z,38.85
2023-05-20T14:16:56.487Z,38.82
2023-05-20T14:18:58.348Z,38.76
2023-05-20T14:21:00.050Z,38.82
2023-05-20T14:23:01.864Z,38.84
2023-05-20T14:25:04.063Z,38.90
2023-05-20T14:27:07.207Z,38.68
2023-05-20T14:29:08.918Z,38.61
2023-05-20T14:31:10.642Z,38.46
2023-05-20T14:33:12.364Z,38.68
2023-05-20T14:35:14.040Z,38.88
2023-05-20T14:37:15.709Z,38.46
2023-05-20T14:39:17.422Z,38.96
2023-05-20T14:41:19.027Z,38.36
2023-05-20T14:43:22.106Z,38.91
2023-05-20T14:45:23.767Z,38.28
2023-05-20T14:47:25.423Z,39.07
2023-05-20T14:49:27.123Z,40.03
2023-05-20T14:51:28.730Z,40.24
2023-05-20T14:53:30.394Z,39.97
2023-05-20T14:55:31.996Z,40.47
2023-05-20T14:57:33.885Z,40.93
2023-05-20T14:59:37.020Z,40.74
2023-05-20T15:01:38.681Z,40.90
2023-05-20T15:03:40.410Z,40.45
2023-05-20T15:05:42.199Z,40.73
2023-05-20T15:07:44.770Z,40.53
2023-05-20T15:09:46.527Z,40.73
2023-05-20T15:11:48.176Z,40.35
2023-05-20T15:13:49.755Z,40.31
2023-05-20T15:15:53.172Z,40.09
2023-05-20T15:17:54.850Z,40.36
2023-05-20T15:19:56.480Z,40.17
2023-05-20T15:21:58.091Z,40.39
2023-05-20T15:23:59.761Z,40.44
2023-05-20T15:26:01.500Z,40.89
2023-05-20T15:28:03.133Z,40.45
2023-05-20T15:30:05.920Z,40.85
2023-05-20T15:32:08.933Z,40.96
2023-05-20T15:34:10.566Z,40.88
2023-05-20T15:36:12.309Z,40.87
2023-05-20T15:38:14.336Z,40.61
2023-05-20T15:40:16.353Z,40.92
2023-05-20T15:42:18.025Z,40.78
2023-05-20T15:44:19.718Z,41.14
2023-05-20T15:46:21.396Z,41.09
2023-05-20T15:48:24.448Z,40.76
2023-05-20T15:50:26.046Z,40.83
2023-05-20T15:52:27.838Z,41.37
2023-05-20T15:54:29.536Z,40.63
2023-05-20T15:56:31.253Z,40.90
2023-05-20T15:58:32.898Z,40.56
2023-05-20T16:00:34.912Z,40.67
2023-05-20T16:02:37.070Z,40.60
2023-05-20T16:04:43.362Z,40.73
2023-05-20T16:06:45.135Z,40.69
2023-05-20T16:08:46.848Z,40.14
2023-05-20T16:10:48.548Z,40.63
2023-05-20T16:12:50.248Z,40.82
2023-05-20T16:14:53.167Z,40.46
2023-05-20T16:16:54.883Z,40.60
2023-05-20T16:18:56.560Z,40.89
2023-05-20T16:20:59.612Z,40.42
2023-05-20T16:23:01.243Z,40.58
2023-05-20T16:25:06.311Z,40.30
2023-05-20T16:27:07.963Z,40.59
2023-05-20T16:29:09.790Z,40.18
2023-05-20T16:31:11.432Z,40.97
2023-05-20T16:33:13.339Z,40.42
2023-05-20T16:35:16.287Z,40.74
2023-05-20T16:37:19.338Z,40.82
2023-05-20T16:39:21.023Z,40.87
2023-05-20T16:41:22.724Z,40.88
2023-05-20T16:43:24.442Z,41.01
2023-05-20T16:45:26.134Z,41.10
2023-05-20T16:47:27.770Z,41.06
2023-05-20T16:49:29.422Z,41.19
2023-05-20T16:51:31.045Z,41.32
2023-05-20T16:53:33.992Z,41.67
2023-05-20T16:55:35.630Z,41.81
2023-05-20T16:57:37.306Z,41.77
2023-05-20T16:59:38.970Z,42.21
2023-05-20T17:01:41.017Z,42.28
2023-05-20T17:03:43.046Z,42.72
2023-05-20T17:05:44.791Z,42.39
2023-05-20T17:07:46.451Z,42.35
2023-05-20T17:09:49.571Z,41.98
2023-05-20T17:11:51.354Z,41.99
2023-05-20T17:13:52.966Z,42.45
2023-05-20T17:15:54.633Z,42.27
2023-05-20T17:17:56.406Z,42.54
2023-05-20T17:19:58.175Z,41.85
2023-05-20T17:21:59.843Z,42.33
2023-05-20T17:24:01.636Z,42.30
2023-05-20T17:26:04.942Z,42.43
2023-05-20T17:28:06.823Z,42.45
2023-05-20T17:30:09.256Z,42.72
2023-05-20T17:32:10.963Z,42.63
2023-05-20T17:34:12.907Z,42.65
2023-05-20T17:36:14.609Z,42.76
2023-05-20T17:38:16.507Z,42.62
2023-05-20T17:40:18.529Z,42.70
2023-05-20T17:42:21.568Z,43.00
2023-05-20T17:44:23.401Z,43.01
2023-05-20T17:46:25.162Z,42.69
2023-05-20T17:48:26.850Z,42.24
2023-05-20T17:50:28.546Z,42.29
2023-05-20T17:52:30.825Z,42.35
2023-05-20T17:54:32.475Z,42.42
2023-05-20T17:56:34.323Z,41.84
2023-05-20T17:58:37.334Z,41.89
2023-05-20T18:00:39.058Z,41.96
2023-05-20T18:02:40.833Z,42.02
2023-05-20T18:04:42.505Z,41.89
2023-05-20T18:06:44.389Z,41.80
2023-05-20T18:08:46.052Z,41.52
2023-05-20T18:10:47.910Z,41.63
2023-05-20T18:12:49.507Z,41.94
2023-05-20T18:14:52.600Z,41.50
2023-05-20T18:16:54.252Z,41.51
2023-05-20T18:18:56.965Z,41.58
2023-05-20T18:20:58.748Z,41.35
2023-05-20T18:23:00.399Z,41.44
2023-05-20T18:25:02.416Z,41.48
2023-05-20T18:27:04.541Z,42.18
2023-05-20T18:29:06.168Z,42.29
2023-05-20T18:31:09.341Z,42.43
2023-05-20T18:33:11.093Z,42.48
2023-05-20T18:35:12.732Z,42.33
2023-05-20T18:37:14.317Z,42.68
2023-05-20T18:39:16.105Z,42.46
2023-05-20T18:41:17.858Z,42.41
2023-05-20T18:43:19.558Z,42.52
2023-05-20T18:45:21.487Z,42.51
2023-05-20T18:47:24.693Z,42.53
2023-05-20T18:49:26.372Z,42.82
2023-05-20T18:51:28.198Z,42.88
2023-05-20T18:53:29.876Z,43.05
2023-05-20T18:55:31.519Z,43.22
2023-05-20T18:57:33.134Z,43.23
2023-05-20T18:59:34.797Z,43.29
2023-05-20T19:01:36.668Z,43.45
2023-05-20T19:03:42.343Z,43.55
2023-05-20T19:05:43.993Z,43.62
2023-05-20T19:07:45.670Z,43.25
2023-05-20T19:09:47.397Z,43.53
2023-05-20T19:11:49.063Z,43.30
2023-05-20T19:13:50.732Z,42.88
2023-05-20T19:15:52.461Z,43.20
2023-05-20T19:17:54.131Z,43.11
2023-05-20T19:19:57.136Z,43.07
2023-05-20T19:21:59.014Z,42.95
2023-05-20T19:24:00.634Z,42.98
2023-05-20T19:26:03.999Z,42.92
2023-05-20T19:28:05.816Z,43.37
2023-05-20T19:30:10.689Z,43.46
2023-05-20T19:32:13.065Z,43.60
2023-05-20T19:34:14.911Z,44.08
2023-05-20T19:36:17.952Z,44.26
2023-05-20T19:38:19.610Z,44.18
2023-05-20T19:40:21.386Z,44.27
2023-05-20T19:42:23.108Z,44.63
2023-05-20T19:44:24.857Z,44.44
2023-05-20T19:46:26.705Z,44.31
2023-05-20T19:48:28.392Z,44.34
2023-05-20T19:50:30.152Z,44.25
2023-05-20T19:52:33.296Z,44.54
2023-05-20T19:54:34.958Z,45.04
2023-05-20T19:56:36.706Z,45.41
2023-05-20T19:58:38.429Z,45.72
2023-05-20T20:00:40.062Z,46.34
2023-05-20T20:02:41.747Z,47.07
2023-05-20T20:04:43.558Z,47.14
2023-05-20T20:06:45.263Z,46.86
2023-05-20T20:08:48.362Z,46.23
2023-05-20T20:10:50.063Z,46.75
2023-05-20T20:12:51.689Z,46.91
2023-05-20T20:14:53.334Z,46.77
2023-05-20T20:16:55.061Z,46.86
2023-05-20T20:18:56.874Z,46.53
2023-05-20T20:20:58.715Z,46.65
2023-05-20T20:23:00.406Z,46.61
2023-05-20T20:25:03.515Z,47.04
2023-05-20T20:27:06.021Z,47.12
2023-05-20T20:29:07.873Z,47.01
2023-05-20T20:31:09.629Z,46.98
2023-05-20T20:33:11.327Z,47.47
2023-05-20T20:35:13.114Z,47.79
2023-05-20T20:37:15.182Z,47.96
2023-05-20T20:39:17.367Z,47.69
2023-05-20T20:41:20.371Z,47.63
2023-05-20T20:43:22.099Z,47.73
2023-05-20T20:45:23.848Z,47.85
2023-05-20T20:47:25.965Z,47.37
2023-05-20T20:49:28.490Z,47.45
2023-05-20T20:51:30.320Z,47.60
2023-05-20T20:53:32.051Z,47.81
2023-05-20T20:55:33.939Z,48.08
2023-05-20T20:57:37.089Z,47.99
2023-05-20T20:59:38.795Z,48.11
2023-05-20T21:01:40.419Z,48.27
2023-05-20T21:03:42.116Z,48.25
2023-05-20T21:05:43.863Z,48.28
2023-05-20T21:07:45.735Z,48.46
2023-05-20T21:09:47.509Z,48.67
2023-05-20T21:11:49.430Z,48.72
2023-05-20T21:13:52.549Z,48.77
2023-05-20T21:15:54.467Z,48.87
2023-05-20T21:17:56.172Z,48.56
2023-05-20T21:19:57.884Z,48.82
2023-05-20T21:21:59.514Z,49.09
2023-05-20T21:24:01.457Z,49.04
2023-05-20T21:26:03.073Z,49.25
2023-05-20T21:28:05.055Z,49.26
2023-05-20T21:30:09.345Z,49.00
2023-05-20T21:32:11.038Z,49.26
2023-05-20T21:34:12.724Z,49.69
2023-05-20T21:36:14.511Z,50.12
2023-05-20T21:38:16.490Z,50.04
2023-05-20T21:40:18.202Z,50.63
2023-05-20T21:42:19.996Z,50.83
2023-05-20T21:44:21.616Z,50.83
2023-05-20T21:46:24.659Z,50.91
2023-05-20T21:48:26.365Z,50.81
2023-05-20T21:50:27.995Z,50.35
2023-05-20T21:52:29.985Z,50.64
2023-05-20T21:54:31.623Z,50.95
2023-05-20T21:56:33.283Z,50.53
2023-05-20T21:58:34.976Z,51.08
2023-05-20T22:00:36.617Z,50.63
2023-05-20T22:02:39.796Z,51.50
2023-05-20T22:04:41.619Z,51.79
2023-05-20T22:06:43.373Z,51.61
2023-05-20T22:08:44.996Z,52.11
2023-05-20T22:10:46.657Z,51.65
2023-05-20T22:12:48.603Z,51.75
2023-05-20T22:14:50.220Z,51.75
2023-05-20T22:16:51.975Z,51.52
2023-05-20T22:18:55.030Z,51.58
2023-05-20T22:20:56.982Z,51.99
2023-05-20T22:22:58.644Z,51.40
2023-05-20T22:25:00.339Z,51.29
2023-05-20T22:27:02.138Z,51.53
2023-05-20T22:29:04.592Z,51.37
2023-05-20T22:31:06.426Z,51.62
2023-05-20T22:33:08.249Z,51.48
2023-05-20T22:35:11.464Z,51.68
2023-05-20T22:37:13.263Z,51.26
2023-05-20T22:39:15.231Z,51.84
2023-05-20T22:41:16.957Z,51.47
2023-05-20T22:43:18.666Z,51.53
2023-05-20T22:45:20.346Z,51.58
2023-05-20T22:47:22.197Z,51.67
2023-05-20T22:49:24.003Z,51.41
2023-05-20T22:51:27.512Z,51.54
2023-05-20T22:53:29.235Z,51.70
2023-05-20T22:55:31.130Z,51.55
2023-05-20T22:57:37.849Z,52.08
2023-05-20T22:59:39.481Z,51.93
2023-05-20T23:01:41.252Z,51.95
2023-05-20T23:03:42.913Z,51.73
2023-05-20T23:05:44.487Z,51.83
2023-05-20T23:07:47.388Z,51.77
2023-05-20T23:09:49.160Z,51.93
2023-05-20T23:11:52.129Z,51.57
2023-05-20T23:13:53.989Z,51.96
2023-05-20T23:15:55.840Z,51.90
2023-05-20T23:17:57.537Z,51.81
2023-05-20T23:19:59.273Z,52.00
2023-05-20T23:22:00.915Z,51.89
2023-05-20T23:24:04.697Z,52.23
2023-05-20T23:26:12.561Z,52.09
2023-05-20T23:28:14.323Z,51.75
2023-05-20T23:30:15.949Z,51.92
2023-05-20T23:32:17.699Z,51.74
2023-05-20T23:34:19.441Z,51.79
2023-05-20T23:36:21.483Z,52.06
2023-05-20T23:38:23.152Z,51.96
2023-05-20T23:40:26.129Z,51.81
2023-05-20T23:42:27.805Z,52.24
2023-05-20T23:44:29.586Z,52.16
2023-05-20T23:46:31.326Z,51.85
2023-05-20T23:48:36.204Z,52.46
2023-05-20T23:50:37.916Z,52.20
2023-05-20T23:52:39.673Z,52.38
2023-05-20T23:54:41.366Z,52.45
2023-05-20T23:56:44.512Z,52.52
2023-05-20T23:58:46.136Z,52.23
